Time;durP1;ratioP1;P1;durP2;ratioP2;P2;SDS_P1;SDS_P2;PMS_P1;PMS_P2;Temp;Humidity;BMP_temperature;BMP_pressure;BME280_temperature;BME280_humidity;BME280_pressure;Samples;Min_cycle;Max_cycle;Signal;HPM_P1;HPM_P2
2022/01/06 00:02:29;;;;;;;;;;;;;;;3.31;100.00;97795.25;1649726;86;21510;-73
2022/01/06 00:04:57;;;;;;;;;;;;;;;3.32;100.00;97785.20;1630979;85;20265;-74
2022/01/06 00:07:29;;;;;;;;;;;;;;;3.31;100.00;97783.05;1632729;86;20440;-73
2022/01/06 00:09:57;;;;;;;;;;;;;;;3.30;100.00;97781.45;1648465;85;20694;-74
2022/01/06 00:12:33;;;;;;;;;;;;;;;3.28;100.00;97785.02;1645857;85;20180;-74
2022/01/06 00:15:02;;;;;;;;;;;;;;;3.28;100.00;97770.11;1649655;85;21246;-73
2022/01/06 00:25:44;;;;;;;;;;;;;;;3.34;100.00;97817.44;1654582;86;20184;-74
2022/01/06 00:28:13;;;;;;;;;;;;;;;3.31;100.00;97804.74;1649607;86;21201;-73
2022/01/06 00:30:44;;;;;;;;;;;;;;;3.31;100.00;97819.66;1645553;86;20181;-73
2022/01/06 00:33:14;;;;;;;;;;;;;;;3.31;100.00;97810.17;1651345;86;20200;-73
2022/01/06 00:35:52;;;;;;;;;;;;;;;3.33;100.00;97822.06;1651815;86;20377;-73
2022/01/06 00:38:21;;;;;;;;;;;;;;;3.33;100.00;97823.97;1654489;86;20189;-74
2022/01/06 00:40:59;;;;;;;;;;;;;;;3.35;100.00;97829.34;1638601;86;20119;-73
2022/01/06 00:43:37;;;;;;;;;;;;;;;3.36;100.00;97836.92;1674799;84;20222;-73
2022/01/06 00:45:54;;;;;;;;;;;;;;;3.37;100.00;97850.72;1684468;84;20211;-73
2022/01/06 00:48:24;;;;;;;;;;;;;;;3.39;100.00;97846.59;1690795;84;20462;-72
2022/01/06 00:50:50;;;;;;;;;;;;;;;3.39;100.00;97845.23;1687363;84;20595;-72
2022/01/06 00:53:24;;;;;;;;;;;;;;;3.41;100.00;97853.86;1684348;84;21099;-72
2022/01/06 00:55:51;;;;;;;;;;;;;;;3.44;100.00;97859.23;1687588;84;20151;-74
2022/01/06 00:58:19;;;;;;;;;;;;;;;3.44;100.00;97864.09;1685320;84;20457;-75
2022/01/06 01:00:45;;;;;;;;;;;;;;;3.43;100.00;97865.77;1685622;84;20207;-75
2022/01/06 01:03:21;;;;;;;;;;;;;;;3.44;100.00;97868.72;1681605;84;20211;-74
2022/01/06 01:05:55;;;;;;;;;;;;;;;3.46;100.00;97866.50;1695972;84;21216;-73
2022/01/06 01:08:27;;;;;;;;;;;;;;;3.48;100.00;97881.88;1688505;84;20466;-73
2022/01/06 01:10:54;;;;;;;;;;;;;;;3.45;100.00;97883.89;1658656;85;20170;-72
2022/01/06 01:13:37;;;;;;;;;;;;;;;3.46;100.00;97880.06;1658973;85;20183;-72
2022/01/06 01:16:22;;;;;;;;;;;;;;;3.45;100.00;97865.70;1682747;84;20221;-72
2022/01/06 01:18:29;;;;;;;;;;;;;;;3.48;100.00;97846.06;1681496;84;21172;-72
2022/01/06 01:20:56;;;;;;;;;;;;;;;3.50;100.00;97860.67;1679856;84;20127;-72
2022/01/06 01:23:28;;;;;;;;;;;;;;;3.48;100.00;97861.53;1689809;84;20119;-72
2022/01/06 01:26:00;;;;;;;;;;;;;;;3.46;100.00;97852.94;1681084;85;20171;-72
2022/01/06 01:28:32;;;;;;;;;;;;;;;3.48;100.00;97853.40;1682641;84;20163;-72
2022/01/06 01:33:42;;;;;;;;;;;;;;;3.54;100.00;97861.66;1660747;85;20206;-72
2022/01/06 01:36:11;;;;;;;;;;;;;;;3.55;100.00;97853.20;1669788;84;20482;-72
2022/01/06 01:38:44;;;;;;;;;;;;;;;3.56;100.00;97847.22;1671087;84;20127;-72
2022/01/06 01:41:14;;;;;;;;;;;;;;;3.56;100.00;97844.51;1689581;84;20463;-72
2022/01/06 01:43:47;;;;;;;;;;;;;;;3.58;100.00;97849.87;1671950;84;21400;-72
2022/01/06 01:46:17;;;;;;;;;;;;;;;3.58;100.00;97844.44;1640188;85;20117;-72
2022/01/06 01:49:11;;;;;;;;;;;;;;;3.59;100.00;97841.98;1638470;85;20150;-72
2022/01/06 01:51:22;;;;;;;;;;;;;;;3.57;100.00;97852.89;1670908;84;20145;-71
2022/01/06 01:53:49;;;;;;;;;;;;;;;3.56;100.00;97845.87;1668450;85;20134;-70
2022/01/06 01:56:20;;;;;;;;;;;;;;;3.54;100.00;97836.67;1671888;84;21781;-71
2022/01/06 01:58:45;;;;;;;;;;;;;;;3.55;100.00;97831.50;1663577;84;20522;-71
2022/01/06 02:01:16;;;;;;;;;;;;;;;3.58;100.00;97820.58;1664506;84;20141;-71
2022/01/06 02:03:44;;;;;;;;;;;;;;;3.59;100.00;97830.32;1656129;84;20129;-71
2022/01/06 02:06:13;;;;;;;;;;;;;;;3.56;100.00;97839.88;1665072;84;20105;-71
2022/01/06 02:08:45;;;;;;;;;;;;;;;3.54;100.00;97850.80;1660990;84;21200;-72
2022/01/06 02:11:13;;;;;;;;;;;;;;;3.54;100.00;97847.53;1658688;84;20133;-75
2022/01/06 02:13:48;;;;;;;;;;;;;;;3.53;100.00;97847.28;1638844;84;20154;-75
2022/01/06 02:16:23;;;;;;;;;;;;;;;3.54;100.00;97858.94;1630851;84;20477;-75
2022/01/06 02:18:50;;;;;;;;;;;;;;;3.52;100.00;97851.67;1636283;85;20117;-76
2022/01/06 02:21:23;;;;;;;;;;;;;;;3.51;100.00;97863.08;1662557;84;22239;-77
2022/01/06 02:23:46;;;;;;;;;;;;;;;3.48;100.00;97865.05;1673360;84;20181;-75
2022/01/06 02:26:22;;;;;;;;;;;;;;;3.47;100.00;97879.72;1691224;84;20144;-74
2022/01/06 02:28:50;;;;;;;;;;;;;;;3.48;100.00;97883.23;1635991;84;20197;-74
2022/01/06 02:31:17;;;;;;;;;;;;;;;3.48;100.00;97882.69;1660014;84;20187;-71
2022/01/06 02:33:50;;;;;;;;;;;;;;;3.47;100.00;97897.91;1635118;86;20118;-71
2022/01/06 02:36:17;;;;;;;;;;;;;;;3.45;100.00;97913.17;1682941;85;20148;-71
2022/01/06 02:38:45;;;;;;;;;;;;;;;3.46;100.00;97922.91;1663940;84;20145;-71
2022/01/06 02:41:16;;;;;;;;;;;;;;;3.47;100.00;97919.62;1631003;85;20173;-72
2022/01/06 02:43:48;;;;;;;;;;;;;;;3.49;100.00;97930.41;1659812;85;20175;-71
2022/01/06 02:46:16;;;;;;;;;;;;;;;3.51;100.00;97922.77;1683413;85;21078;-71
2022/01/06 02:48:44;;;;;;;;;;;;;;;3.53;100.00;97919.19;1686756;84;20454;-71
2022/01/06 02:51:13;;;;;;;;;;;;;;;3.55;100.00;97928.37;1677931;84;20109;-71
2022/01/06 02:53:42;;;;;;;;;;;;;;;3.56;100.00;97937.56;1648973;85;20459;-74
2022/01/06 02:56:11;;;;;;;;;;;;;;;3.57;100.00;97937.00;1654665;85;20090;-74
2022/01/06 02:58:46;;;;;;;;;;;;;;;3.56;100.00;97945.70;1621571;86;20164;-74
2022/01/06 03:01:16;;;;;;;;;;;;;;;3.57;100.00;97945.14;1642040;85;20241;-73
2022/01/06 03:03:45;;;;;;;;;;;;;;;3.57;100.00;97935.09;1664542;85;20467;-74
2022/01/06 03:06:16;;;;;;;;;;;;;;;3.59;100.00;97942.92;1653639;85;20486;-75
2022/01/06 03:08:47;;;;;;;;;;;;;;;3.59;100.00;97940.22;1674370;84;20172;-75
2022/01/06 03:11:25;;;;;;;;;;;;;;;3.61;100.00;97942.86;1656938;85;20475;-75
2022/01/06 03:13:48;;;;;;;;;;;;;;;3.63;100.00;97942.55;1670225;84;20161;-76
2022/01/06 03:16:27;;;;;;;;;;;;;;;3.63;100.00;97948.78;1665482;84;20125;-74
2022/01/06 03:19:01;;;;;;;;;;;;;;;3.63;100.00;97941.20;1667898;84;20412;-74
2022/01/06 03:21:32;;;;;;;;;;;;;;;3.64;100.00;97942.80;1681921;84;20164;-75
2022/01/06 03:24:00;;;;;;;;;;;;;;;3.65;100.00;97938.98;1660256;84;22153;-75
2022/01/06 03:26:33;;;;;;;;;;;;;;;3.67;100.00;97939.47;1663171;84;20133;-73
2022/01/06 03:28:58;;;;;;;;;;;;;;;3.69;100.00;97949.46;1655079;84;20148;-73
2022/01/06 03:31:33;;;;;;;;;;;;;;;3.70;100.00;97949.70;1668812;84;20103;-73
2022/01/06 03:34:03;;;;;;;;;;;;;;;3.72;100.00;97949.40;1647271;86;20124;-73
2022/01/06 03:36:31;;;;;;;;;;;;;;;3.73;100.00;97950.45;1684109;84;21128;-73
2022/01/06 03:38:58;;;;;;;;;;;;;;;3.75;100.00;97954.20;1652210;85;20095;-73
2022/01/06 03:41:26;;;;;;;;;;;;;;;3.77;100.00;97959.58;1643595;86;20495;-73
2022/01/06 03:43:54;;;;;;;;;;;;;;;3.78;100.00;97959.82;1647386;86;20390;-72
2022/01/06 03:46:29;;;;;;;;;;;;;;;3.79;100.00;97951.92;1655284;86;20237;-72
2022/01/06 03:48:55;;;;;;;;;;;;;;;3.80;100.00;97950.81;1661645;84;21161;-72
2022/01/06 03:51:25;;;;;;;;;;;;;;;3.81;100.00;97950.26;1665233;84;20541;-72
2022/01/06 03:54:09;;;;;;;;;;;;;;;3.81;100.00;97953.77;1631767;85;20481;-74
2022/01/06 03:56:28;;;;;;;;;;;;;;;3.81;100.00;97954.33;1670008;84;20146;-73
2022/01/06 03:58:58;;;;;;;;;;;;;;;3.81;100.00;97967.34;1686330;84;20115;-71
2022/01/06 04:01:26;;;;;;;;;;;;;;;3.79;100.00;97964.14;1668185;84;21543;-71
2022/01/06 04:03:57;;;;;;;;;;;;;;;3.78;100.00;97965.25;1604334;88;20101;-70
2022/01/06 04:06:25;;;;;;;;;;;;;;;3.79;100.00;97965.50;1623988;88;20113;-73
2022/01/06 04:08:54;;;;;;;;;;;;;;;3.80;100.00;97967.66;1603654;87;20092;-74
2022/01/06 04:11:29;;;;;;;;;;;;;;;3.78;100.00;97957.66;1640994;86;20178;-74
2022/01/06 04:13:53;;;;;;;;;;;;;;;3.75;100.00;97953.66;1649513;86;21169;-75
2022/01/06 04:16:21;;;;;;;;;;;;;;;3.75;100.00;97955.56;1641120;86;20115;-75
2022/01/06 04:18:47;;;;;;;;;;;;;;;3.75;100.00;97952.85;1615914;87;20104;-74
2022/01/06 04:21:18;;;;;;;;;;;;;;;3.74;100.00;97960.75;1612658;87;20102;-74
2022/01/06 04:23:47;;;;;;;;;;;;;;;3.72;100.00;97950.20;1622266;87;20113;-75
2022/01/06 04:26:18;;;;;;;;;;;;;;;3.71;100.00;97967.59;1625849;87;21048;-76
2022/01/06 04:28:50;;;;;;;;;;;;;;;3.69;100.00;97969.81;1599460;88;20214;-75
2022/01/06 04:31:20;;;;;;;;;;;;;;;3.67;100.00;97979.38;1618997;87;20446;-74
2022/01/06 04:33:54;;;;;;;;;;;;;;;3.64;100.00;97979.44;1613690;86;20120;-75
2022/01/06 04:38:49;;;;;;;;;;;;;;;3.60;100.00;97975.73;1604794;87;21365;-74
2022/01/06 04:41:21;;;;;;;;;;;;;;;3.59;100.00;97976.29;1635047;86;20148;-73
2022/01/06 04:43:49;;;;;;;;;;;;;;;3.58;100.00;97984.73;1631610;86;20079;-72
2022/01/06 04:46:23;;;;;;;;;;;;;;;3.57;100.00;97988.00;1619594;84;20201;-74
2022/01/06 04:48:49;;;;;;;;;;;;;;;3.60;100.00;97986.03;1645268;85;20083;-74
2022/01/06 04:51:23;;;;;;;;;;;;;;;3.61;100.00;97981.41;1628987;86;21985;-74
2022/01/06 04:53:49;;;;;;;;;;;;;;;3.61;100.00;97993.62;1624129;86;20534;-74
2022/01/06 04:56:17;;;;;;;;;;;;;;;3.61;100.00;97997.69;1615681;87;20102;-74
2022/01/06 04:58:44;;;;;;;;;;;;;;;3.60;100.00;97998.80;1657898;85;20417;-74
2022/01/06 05:01:17;;;;;;;;;;;;;;;3.58;100.00;98007.25;1654217;85;20261;-73
2022/01/06 05:03:50;;;;;;;;;;;;;;;3.59;100.00;98024.33;1663842;84;21112;-74
2022/01/06 05:06:23;;;;;;;;;;;;;;;3.58;100.00;98015.94;1652373;85;20090;-73
2022/01/06 05:08:50;;;;;;;;;;;;;;;3.56;100.00;98028.45;1651201;85;20477;-73
2022/01/06 05:11:22;;;;;;;;;;;;;;;3.55;100.00;98031.48;1650146;85;20664;-72
2022/01/06 05:14:04;;;;;;;;;;;;;;;3.53;100.00;98025.00;1650561;86;20413;-72
2022/01/06 05:16:22;;;;;;;;;;;;;;;3.54;100.00;98038.02;1646650;86;21160;-72
2022/01/06 05:18:51;;;;;;;;;;;;;;;3.52;100.00;98042.39;1667424;84;20162;-71
2022/01/06 05:21:20;;;;;;;;;;;;;;;3.51;100.00;98050.28;1642931;86;20153;-71
2022/01/06 05:23:50;;;;;;;;;;;;;;;3.55;100.00;98051.27;1613166;86;20434;-72
2022/01/06 05:26:31;;;;;;;;;;;;;;;3.59;100.00;98052.82;1655043;85;20437;-71
2022/01/06 05:28:51;;;;;;;;;;;;;;;3.60;100.00;98054.42;1648419;86;21578;-72
2022/01/06 05:31:19;;;;;;;;;;;;;;;3.58;100.00;98058.80;1656636;85;20106;-71
2022/01/06 05:33:54;;;;;;;;;;;;;;;3.56;100.00;98061.02;1640206;86;20161;-72
2022/01/06 05:36:27;;;;;;;;;;;;;;;3.56;100.00;98061.02;1602897;87;20153;-72
2022/01/06 05:39:08;;;;;;;;;;;;;;;3.57;100.00;98064.53;1661460;85;20625;-73
2022/01/06 05:41:27;;;;;;;;;;;;;;;3.59;100.00;98065.03;1644301;86;21908;-73
2022/01/06 05:43:57;;;;;;;;;;;;;;;3.58;100.00;98071.02;1651443;85;20108;-73
2022/01/06 05:46:35;;;;;;;;;;;;;;;3.55;100.00;98074.34;1667984;85;20156;-77
2022/01/06 05:49:04;;;;;;;;;;;;;;;3.58;100.00;98090.56;1651338;86;20152;-76
2022/01/06 05:51:33;;;;;;;;;;;;;;;3.55;100.00;98077.60;1667180;85;20137;-76
2022/01/06 05:54:00;;;;;;;;;;;;;;;3.55;100.00;98089.27;1665349;84;21160;-75
2022/01/06 05:56:34;;;;;;;;;;;;;;;3.55;100.00;98091.17;1639067;85;20153;-72
2022/01/06 05:59:08;;;;;;;;;;;;;;;3.54;100.00;98091.73;1620873;87;20132;-73
2022/01/06 06:01:38;;;;;;;;;;;;;;;3.55;100.00;98090.62;1664235;84;20191;-74
2022/01/06 06:04:05;;;;;;;;;;;;;;;3.57;100.00;98099.26;1651934;86;20494;-74
2022/01/06 06:06:43;;;;;;;;;;;;;;;3.55;100.00;98097.41;1638002;85;20122;-74
2022/01/06 06:09:09;;;;;;;;;;;;;;;3.58;100.00;98106.84;1628982;86;20149;-73
2022/01/06 06:11:44;;;;;;;;;;;;;;;3.60;100.00;98109.50;1612129;87;20161;-74
2022/01/06 06:14:15;;;;;;;;;;;;;;;3.62;100.00;98113.27;1654310;84;20167;-74
2022/01/06 06:16:47;;;;;;;;;;;;;;;3.62;100.00;98117.34;1629119;86;20130;-76
2022/01/06 06:19:11;;;;;;;;;;;;;;;3.63;100.00;98116.23;1653534;86;21171;-71
2022/01/06 06:21:44;;;;;;;;;;;;;;;3.64;100.00;98121.91;1653836;86;20124;-73
2022/01/06 06:24:11;;;;;;;;;;;;;;;3.65;100.00;98120.80;1644145;86;20127;-68
2022/01/06 06:26:47;;;;;;;;;;;;;;;3.66;100.00;98123.77;1624926;86;20099;-72
2022/01/06 06:29:11;;;;;;;;;;;;;;;3.67;100.00;98132.70;1633824;86;20166;-71
2022/01/06 06:31:37;;;;;;;;;;;;;;;3.65;100.00;98131.10;1647652;86;21559;-72
2022/01/06 06:34:03;;;;;;;;;;;;;;;3.66;100.00;98133.26;1646755;86;20082;-75
2022/01/06 06:36:30;;;;;;;;;;;;;;;3.65;100.00;98133.81;1642492;86;20160;-75
2022/01/06 06:38:56;;;;;;;;;;;;;;;3.65;100.00;98131.66;1635752;86;20357;-74
2022/01/06 06:41:22;;;;;;;;;;;;;;;3.67;100.00;98132.16;1641323;87;20122;-76
2022/01/06 06:43:48;;;;;;;;;;;;;;;3.65;100.00;98125.67;1626789;87;21521;-76
2022/01/06 06:46:15;;;;;;;;;;;;;;;3.64;100.00;98126.78;1638197;86;20102;-76
2022/01/06 06:48:42;;;;;;;;;;;;;;;3.62;100.00;98134.42;1631685;86;20106;-77
2022/01/06 06:51:08;;;;;;;;;;;;;;;3.59;100.00;98137.74;1639709;85;21053;-76
2022/01/06 06:53:34;;;;;;;;;;;;;;;3.55;100.00;98138.66;1659502;84;20130;-75
2022/01/06 06:56:01;;;;;;;;;;;;;;;3.52;100.00;98145.49;1652192;85;21251;-71
2022/01/06 06:58:27;;;;;;;;;;;;;;;3.50;100.00;98150.42;1652555;86;20206;-73
2022/01/06 07:00:54;;;;;;;;;;;;;;;3.49;100.00;98155.59;1651250;86;20172;-70
2022/01/06 07:03:20;;;;;;;;;;;;;;;3.46;100.00;98166.28;1651495;86;20124;-73
2022/01/06 07:05:48;;;;;;;;;;;;;;;3.40;100.00;98160.70;1650896;86;20215;-73
2022/01/06 07:08:14;;;;;;;;;;;;;;;3.33;100.00;98156.23;1652278;86;22114;-71
2022/01/06 07:10:40;;;;;;;;;;;;;;;3.22;100.00;98145.59;1650754;86;20163;-70
2022/01/06 07:13:08;;;;;;;;;;;;;;;3.14;100.00;98153.62;1651831;86;20169;-70
2022/01/06 07:15:36;;;;;;;;;;;;;;;3.07;100.00;98162.70;1652234;86;20311;-71
2022/01/06 07:18:03;;;;;;;;;;;;;;;3.00;100.00;98159.03;1659293;85;20122;-68
2022/01/06 07:20:29;;;;;;;;;;;;;;;2.94;100.00;98164.30;1654339;86;21922;-74
2022/01/06 07:22:56;;;;;;;;;;;;;;;2.89;100.00;98177.94;1642014;86;20164;-70
2022/01/06 07:25:22;;;;;;;;;;;;;;;2.87;100.00;98191.82;1633709;86;20168;-71
2022/01/06 07:27:49;;;;;;;;;;;;;;;2.82;99.99;98187.03;1636825;86;20190;-70
2022/01/06 07:30:17;;;;;;;;;;;;;;;2.74;98.93;98190.43;1628949;87;20217;-70
2022/01/06 07:32:47;;;;;;;;;;;;;;;2.65;97.97;98198.44;1616190;85;39337;-69
2022/01/06 07:35:15;;;;;;;;;;;;;;;2.56;99.39;98199.66;1637986;86;20707;-69
2022/01/06 07:37:42;;;;;;;;;;;;;;;2.54;100.00;98198.34;1631264;87;20156;-68
2022/01/06 07:40:09;;;;;;;;;;;;;;;2.51;99.78;98195.67;1633454;88;20677;-71
2022/01/06 07:42:36;;;;;;;;;;;;;;;2.47;99.78;98200.63;1644544;85;20110;-71
2022/01/06 07:45:04;;;;;;;;;;;;;;;2.44;99.51;98201.22;1637376;86;21215;-69
2022/01/06 07:47:32;;;;;;;;;;;;;;;2.41;99.59;98199.09;1646201;86;20132;-70
2022/01/06 07:49:59;;;;;;;;;;;;;;;2.40;99.85;98209.67;1630375;86;20472;-71
2022/01/06 07:52:25;;;;;;;;;;;;;;;2.39;100.00;98207.52;1642717;86;20140;-69
2022/01/06 07:54:52;;;;;;;;;;;;;;;2.39;100.00;98206.71;1645822;86;20123;-70
2022/01/06 07:57:18;;;;;;;;;;;;;;;2.38;99.95;98212.68;1651989;86;21087;-70
2022/01/06 07:59:44;;;;;;;;;;;;;;;2.37;99.98;98219.19;1633175;87;20089;-69
2022/01/06 08:02:11;;;;;;;;;;;;;;;2.36;100.00;98219.48;1633524;87;20104;-71
2022/01/06 08:04:39;;;;;;;;;;;;;;;2.34;98.20;98218.42;1637102;86;20730;-72
2022/01/06 08:07:05;;;;;;;;;;;;;;;2.30;96.59;98229.62;1645107;86;20201;-70
2022/01/06 08:09:32;;;;;;;;;;;;;;;2.27;95.56;98229.66;1631736;86;21180;-69
2022/01/06 08:11:59;;;;;;;;;;;;;;;2.25;95.62;98228.34;1646382;86;20159;-70
2022/01/06 08:14:27;;;;;;;;;;;;;;;2.25;94.04;98237.82;1642544;86;20129;-69
2022/01/06 08:16:53;;;;;;;;;;;;;;;2.24;92.76;98231.59;1645980;86;20185;-71
2022/01/06 08:19:22;;;;;;;;;;;;;;;2.22;92.09;98237.86;1630905;87;20131;-76
2022/01/06 08:22:02;;;;;;;;;;;;;;;2.23;92.31;98248.14;1605773;88;20132;-75
2022/01/06 08:24:27;;;;;;;;;;;;;;;2.22;91.59;98254.09;1633657;86;20140;-72
2022/01/06 08:26:55;;;;;;;;;;;;;;;2.25;91.62;98252.71;1632992;86;20122;-73
2022/01/06 08:29:29;;;;;;;;;;;;;;;2.31;93.21;98246.13;1633713;86;20122;-75
2022/01/06 08:31:59;;;;;;;;;;;;;;;2.34;91.70;98257.70;1659200;86;20461;-76
2022/01/06 08:34:31;;;;;;;;;;;;;;;2.37;91.81;98257.11;1642408;86;20113;-75
2022/01/06 08:36:59;;;;;;;;;;;;;;;2.40;91.73;98259.23;1649022;85;20138;-76
2022/01/06 08:39:38;;;;;;;;;;;;;;;2.44;92.85;98260.25;1631811;86;20106;-76
2022/01/06 08:42:04;;;;;;;;;;;;;;;2.49;92.54;98267.50;1653158;86;20433;-79
2022/01/06 08:44:32;;;;;;;;;;;;;;;2.48;90.42;98276.17;1629170;87;20424;-74
2022/01/06 08:47:08;;;;;;;;;;;;;;;2.44;90.33;98273.80;1620662;87;20090;-76
2022/01/06 08:49:42;;;;;;;;;;;;;;;2.39;90.87;98267.10;1652699;86;20178;-75
2022/01/06 08:52:08;;;;;;;;;;;;;;;2.37;90.82;98270.66;1651293;85;20160;-75
2022/01/06 08:54:42;;;;;;;;;;;;;;;2.37;90.47;98284.19;1650769;87;20122;-86
2022/01/06 08:57:13;;;;;;;;;;;;;;;2.31;89.30;98284.81;1652684;87;20119;-76
2022/01/06 08:59:36;;;;;;;;;;;;;;;2.24;89.62;98293.87;1652892;85;21118;-76
2022/01/06 09:02:04;;;;;;;;;;;;;;;2.23;91.20;98288.75;1653142;87;20115;-76
2022/01/06 09:04:32;;;;;;;;;;;;;;;2.22;90.29;98280.38;1652514;85;20126;-71
2022/01/06 09:07:05;;;;;;;;;;;;;;;2.20;90.26;98269.03;1652345;87;20129;-70
2022/01/06 09:09:33;;;;;;;;;;;;;;;2.20;91.98;98275.25;1653033;86;20131;-73
2022/01/06 09:12:05;;;;;;;;;;;;;;;2.20;90.22;98281.21;1653090;87;21106;-73
2022/01/06 09:14:37;;;;;;;;;;;;;;;2.18;90.76;98285.56;1631725;87;20150;-72
2022/01/06 09:17:03;;;;;;;;;;;;;;;2.16;89.45;98282.34;1624475;87;20078;-73
2022/01/06 09:19:37;;;;;;;;;;;;;;;2.12;89.77;98282.67;1633688;85;20128;-71
2022/01/06 09:22:14;;;;;;;;;;;;;;;2.12;88.90;98279.16;1625699;88;20158;-72
2022/01/06 09:24:41;;;;;;;;;;;;;;;2.14;89.21;98271.55;1605108;88;20416;-72
2022/01/06 09:27:15;;;;;;;;;;;;;;;2.18;90.02;98284.76;1626096;88;20096;-72
2022/01/06 09:29:45;;;;;;;;;;;;;;;2.24;89.27;98301.20;1606125;88;20484;-72
2022/01/06 09:32:13;;;;;;;;;;;;;;;2.28;88.54;98288.69;1625830;87;20124;-71
2022/01/06 09:34:42;;;;;;;;;;;;;;;2.26;86.12;98297.10;1626378;88;20085;-71
2022/01/06 09:37:17;;;;;;;;;;;;;;;2.22;86.96;98296.63;1640048;85;21129;-71
2022/01/06 09:39:41;;;;;;;;;;;;;;;2.20;86.75;98286.63;1648361;85;20126;-74
2022/01/06 09:42:09;;;;;;;;;;;;;;;2.18;86.84;98286.11;1653106;87;20098;-73
2022/01/06 09:44:45;;;;;;;;;;;;;;;2.16;86.03;98293.72;1652893;86;20628;-77
2022/01/06 09:47:12;;;;;;;;;;;;;;;2.08;84.89;98281.64;1649523;86;20131;-81
2022/01/06 09:49:44;;;;;;;;;;;;;;;2.08;86.04;98288.95;1652712;86;21719;-78
2022/01/06 09:52:15;;;;;;;;;;;;;;;2.07;85.89;98282.73;1653237;85;20090;-79
2022/01/06 09:54:54;;;;;;;;;;;;;;;2.08;85.90;98286.25;1631838;87;20094;-78
2022/01/06 09:57:20;;;;;;;;;;;;;;;2.11;87.18;98281.60;1652300;87;20145;-71
2022/01/06 09:59:55;;;;;;;;;;;;;;;2.14;86.25;98276.96;1652460;86;20441;-76
2022/01/06 10:02:33;;;;;;;;;;;;;;;2.15;86.29;98267.74;1632192;87;20146;-74
2022/01/06 10:05:11;;;;;;;;;;;;;;;2.18;86.24;98282.05;1652931;87;20098;-76
2022/01/06 10:07:39;;;;;;;;;;;;;;;2.19;85.40;98285.83;1652686;85;20123;-76
2022/01/06 10:10:13;;;;;;;;;;;;;;;2.22;86.12;98297.97;1653130;86;20126;-76
2022/01/06 10:12:46;;;;;;;;;;;;;;;2.33;90.37;98296.70;1665681;85;20099;-75
2022/01/06 10:15:30;;;;;;;;;;;;;;;2.48;86.46;98294.34;1635728;87;21574;-75
2022/01/06 10:18:01;;;;;;;;;;;;;;;2.59;86.46;98287.12;1625827;88;20092;-76
2022/01/06 10:20:32;;;;;;;;;;;;;;;2.74;84.32;98287.44;1641812;87;20118;-76
2022/01/06 10:23:14;;;;;;;;;;;;;;;2.86;84.58;98286.98;1652631;86;20374;-76
2022/01/06 10:25:33;;;;;;;;;;;;;;;2.99;82.81;98269.93;1647593;86;20171;-77
2022/01/06 10:28:18;;;;;;;;;;;;;;;3.15;82.56;98251.49;1631661;87;20146;-77
2022/01/06 10:30:48;;;;;;;;;;;;;;;3.32;81.76;98244.94;1652063;86;20086;-77
2022/01/06 10:33:18;;;;;;;;;;;;;;;3.43;79.06;98263.19;1632551;87;20442;-76
2022/01/06 10:35:48;;;;;;;;;;;;;;;3.44;78.73;98261.53;1631552;87;20135;-76
2022/01/06 10:38:31;;;;;;;;;;;;;;;3.48;77.94;98267.13;1653276;87;20102;-77
2022/01/06 10:41:12;;;;;;;;;;;;;;;3.44;75.60;98283.80;1652442;86;21729;-77
2022/01/06 10:43:41;;;;;;;;;;;;;;;3.32;76.09;98297.84;1653158;87;20163;-77
2022/01/06 10:46:11;;;;;;;;;;;;;;;3.21;77.13;98298.56;1631888;87;20145;-75
2022/01/06 10:48:45;;;;;;;;;;;;;;;3.17;77.81;98295.39;1652674;86;20816;-76
2022/01/06 10:51:15;;;;;;;;;;;;;;;3.09;77.44;98296.06;1631027;87;20105;-76
2022/01/06 10:53:56;;;;;;;;;;;;;;;3.00;77.39;98304.07;1652143;86;22012;-76
2022/01/06 10:56:28;;;;;;;;;;;;;;;2.93;78.48;98310.42;1652928;86;20167;-75
2022/01/06 10:58:58;;;;;;;;;;;;;;;2.88;77.85;98315.95;1632402;87;20126;-74
2022/01/06 11:01:27;;;;;;;;;;;;;;;2.81;78.04;98320.39;1653096;87;20137;-75
2022/01/06 11:03:59;;;;;;;;;;;;;;;2.76;78.59;98323.18;1652365;86;20126;-75
2022/01/06 11:06:27;;;;;;;;;;;;;;;2.72;78.77;98307.25;1652270;86;21172;-75
2022/01/06 11:09:00;;;;;;;;;;;;;;;2.67;78.13;98299.75;1633046;87;20079;-76
2022/01/06 11:12:28;;;;;;;;;;;;;;;2.61;78.33;98301.18;1652625;86;20102;-76
2022/01/06 11:14:15;;;;;;;;;;;;;;;2.59;79.11;98302.57;1625713;87;20395;-75
2022/01/06 11:16:44;;;;;;;;;;;;;;;2.56;79.79;98307.22;1653265;87;20102;-76
2022/01/06 11:19:12;;;;;;;;;;;;;;;2.53;80.00;98324.87;1652310;86;21484;-76
2022/01/06 11:21:43;;;;;;;;;;;;;;;2.51;79.98;98320.84;1653088;86;20086;-75
2022/01/06 11:24:12;;;;;;;;;;;;;;;2.48;80.39;98316.00;1652944;86;20130;-75
2022/01/06 11:26:39;;;;;;;;;;;;;;;2.45;80.69;98302.50;1642914;87;20104;-77
2022/01/06 11:29:06;;;;;;;;;;;;;;;2.46;82.00;98301.95;1653419;87;20130;-69
2022/01/06 11:31:39;;;;;;;;;;;;;;;2.48;82.21;98301.91;1653188;87;21029;-71
2022/01/06 11:34:18;;;;;;;;;;;;;;;2.56;82.71;98292.32;1651553;87;20147;-70
2022/01/06 11:36:46;;;;;;;;;;;;;;;2.65;82.65;98286.49;1652078;87;20090;-71
2022/01/06 11:39:31;;;;;;;;;;;;;;;2.72;81.72;98288.28;1650205;87;20681;-72
2022/01/06 11:41:58;;;;;;;;;;;;;;;2.77;81.73;98287.40;1653092;87;20448;-71
2022/01/06 11:44:26;;;;;;;;;;;;;;;2.80;81.14;98271.91;1653421;85;21513;-72
2022/01/06 11:46:55;;;;;;;;;;;;;;;2.79;80.87;98273.80;1653024;87;20469;-71
2022/01/06 11:49:39;;;;;;;;;;;;;;;2.82;81.09;98274.57;1653296;86;20165;-71
2022/01/06 11:52:14;;;;;;;;;;;;;;;2.91;80.87;98271.41;1653239;87;20094;-68
2022/01/06 11:54:54;;;;;;;;;;;;;;;3.05;79.73;98286.36;1653248;87;20095;-67
2022/01/06 11:57:32;;;;;;;;;;;;;;;3.17;79.81;98290.77;1653407;85;21816;-68
2022/01/06 12:00:18;;;;;;;;;;;;;;;3.30;80.66;98298.13;1624728;87;20196;-66
2022/01/06 12:03:03;;;;;;;;;;;;;;;3.45;79.51;98307.11;1625873;88;20101;-67
2022/01/06 12:05:43;;;;;;;;;;;;;;;3.53;78.99;98310.45;1627596;86;20092;-66
2022/01/06 12:08:10;;;;;;;;;;;;;;;3.60;78.57;98319.01;1626412;88;20104;-67
2022/01/06 12:10:39;;;;;;;;;;;;;;;3.63;78.39;98320.57;1630620;87;21147;-67
2022/01/06 12:13:06;;;;;;;;;;;;;;;3.61;77.56;98318.70;1637256;86;20093;-67
2022/01/06 12:15:32;;;;;;;;;;;;;;;3.50;77.40;98324.63;1626775;88;20464;-67
2022/01/06 12:17:59;;;;;;;;;;;;;;;3.36;77.19;98322.45;1606549;88;20181;-67
2022/01/06 12:20:28;;;;;;;;;;;;;;;3.23;77.76;98322.13;1626390;87;20129;-68
2022/01/06 12:22:55;;;;;;;;;;;;;;;3.14;78.61;98320.39;1626496;88;23319;-68
2022/01/06 12:25:22;;;;;;;;;;;;;;;3.09;79.35;98328.05;1625434;88;20135;-70
2022/01/06 12:27:52;;;;;;;;;;;;;;;3.02;78.72;98318.69;1626142;88;20155;-68
2022/01/06 12:30:20;;;;;;;;;;;;;;;2.95;78.38;98319.06;1626695;88;20156;-68
2022/01/06 12:33:00;;;;;;;;;;;;;;;2.86;78.73;98324.37;1626591;88;20157;-68
2022/01/06 12:35:48;;;;;;;;;;;;;;;2.77;77.91;98319.38;1626744;88;21071;-67
2022/01/06 12:38:14;;;;;;;;;;;;;;;2.70;78.44;98318.13;1626399;88;20132;-68
2022/01/06 12:40:47;;;;;;;;;;;;;;;2.70;79.47;98315.42;1635078;85;20456;-69
2022/01/06 12:43:17;;;;;;;;;;;;;;;2.72;79.82;98321.35;1632959;87;20622;-68
2022/01/06 12:45:45;;;;;;;;;;;;;;;2.70;79.30;98320.84;1644954;85;20421;-68
2022/01/06 12:48:14;;;;;;;;;;;;;;;2.69;79.15;98330.06;1625737;87;20123;-69
2022/01/06 12:50:52;;;;;;;;;;;;;;;2.64;78.83;98335.01;1626742;87;20126;-66
2022/01/06 12:53:30;;;;;;;;;;;;;;;2.60;79.27;98323.15;1605859;88;20108;-67
2022/01/06 12:56:03;;;;;;;;;;;;;;;2.58;79.64;98326.15;1617965;87;20118;-66
2022/01/06 12:58:36;;;;;;;;;;;;;;;2.58;79.67;98327.50;1653162;87;20225;-67
2022/01/06 13:01:12;;;;;;;;;;;;;;;2.57;79.33;98323.73;1652906;86;20114;-66
2022/01/06 13:03:39;;;;;;;;;;;;;;;2.55;79.41;98324.02;1652591;86;20470;-66
2022/01/06 13:06:11;;;;;;;;;;;;;;;2.53;79.83;98319.45;1653122;86;20115;-67
2022/01/06 13:08:51;;;;;;;;;;;;;;;2.53;79.94;98314.58;1651535;87;20103;-67
2022/01/06 13:11:19;;;;;;;;;;;;;;;2.54;79.83;98322.41;1645207;87;20101;-68
2022/01/06 13:13:58;;;;;;;;;;;;;;;2.52;79.82;98328.67;1637417;87;21130;-67
2022/01/06 13:16:39;;;;;;;;;;;;;;;2.51;80.23;98341.16;1626254;87;20120;-68
2022/01/06 13:19:14;;;;;;;;;;;;;;;2.50;80.42;98337.64;1624975;88;20124;-67
2022/01/06 13:21:49;;;;;;;;;;;;;;;2.49;80.22;98343.35;1604877;88;20109;-66